sensor_id;sensor_type;location;lat;lon;timestamp;temperature;humidity
63039;DHT22;49125;48.812;9.206;2022-08-04T00:00:07;22.10;80.20
63039;DHT22;49125;48.812;9.206;2022-08-04T00:10:58;21.90;81.80
63039;DHT22;49125;48.812;9.206;2022-08-04T00:13:27;21.90;81.80
63039;DHT22;49125;48.812;9.206;2022-08-04T00:15:58;21.80;82.30
63039;DHT22;49125;48.812;9.206;2022-08-04T00:18:30;21.80;83.30
63039;DHT22;49125;48.812;9.206;2022-08-04T00:20:59;21.80;82.90
63039;DHT22;49125;48.812;9.206;2022-08-04T00:23:29;21.80;83.30
63039;DHT22;49125;48.812;9.206;2022-08-04T00:25:58;21.70;83.30
63039;DHT22;49125;48.812;9.206;2022-08-04T00:28:24;21.70;83.60
63039;DHT22;49125;48.812;9.206;2022-08-04T00:30:50;21.70;84.10
63039;DHT22;49125;48.812;9.206;2022-08-04T00:33:20;21.60;84.20
63039;DHT22;49125;48.812;9.206;2022-08-04T00:35:49;21.60;85.00
63039;DHT22;49125;48.812;9.206;2022-08-04T00:38:16;21.60;85.30
63039;DHT22;49125;48.812;9.206;2022-08-04T00:43:40;21.50;85.50
63039;DHT22;49125;48.812;9.206;2022-08-04T00:51:54;21.40;86.30
63039;DHT22;49125;48.812;9.206;2022-08-04T00:54:36;21.40;86.50
63039;DHT22;49125;48.812;9.206;2022-08-04T01:05:55;21.40;86.70
63039;DHT22;49125;48.812;9.206;2022-08-04T01:08:37;21.40;87.20
63039;DHT22;49125;48.812;9.206;2022-08-04T01:11:21;21.40;87.40
63039;DHT22;49125;48.812;9.206;2022-08-04T01:16:52;21.50;87.00
63039;DHT22;49125;48.812;9.206;2022-08-04T01:30:24;21.60;86.80
63039;DHT22;49125;48.812;9.206;2022-08-04T01:33:02;21.50;86.90
63039;DHT22;49125;48.812;9.206;2022-08-04T01:35:37;21.40;87.70
63039;DHT22;49125;48.812;9.206;2022-08-04T01:40:52;21.30;87.40
63039;DHT22;49125;48.812;9.206;2022-08-04T01:43:20;21.30;87.70
63039;DHT22;49125;48.812;9.206;2022-08-04T01:45:50;21.20;88.00
63039;DHT22;49125;48.812;9.206;2022-08-04T01:48:17;21.20;88.30
63039;DHT22;49125;48.812;9.206;2022-08-04T01:50:51;21.10;88.40
63039;DHT22;49125;48.812;9.206;2022-08-04T01:53:18;21.10;89.00
63039;DHT22;49125;48.812;9.206;2022-08-04T01:55:47;21.10;88.60
63039;DHT22;49125;48.812;9.206;2022-08-04T01:58:15;21.00;89.10
63039;DHT22;49125;48.812;9.206;2022-08-04T02:00:48;21.00;89.20
63039;DHT22;49125;48.812;9.206;2022-08-04T02:03:16;20.90;89.20
63039;DHT22;49125;48.812;9.206;2022-08-04T02:05:47;20.90;89.60
63039;DHT22;49125;48.812;9.206;2022-08-04T02:11:20;20.80;90.10
63039;DHT22;49125;48.812;9.206;2022-08-04T02:16:46;20.70;89.90
63039;DHT22;49125;48.812;9.206;2022-08-04T02:19:53;20.70;90.30
63039;DHT22;49125;48.812;9.206;2022-08-04T02:22:22;20.60;90.10
63039;DHT22;49125;48.812;9.206;2022-08-04T02:24:56;20.60;90.00
63039;DHT22;49125;48.812;9.206;2022-08-04T02:27:28;20.50;90.00
63039;DHT22;49125;48.812;9.206;2022-08-04T02:29:59;20.50;90.10
63039;DHT22;49125;48.812;9.206;2022-08-04T02:32:29;20.50;90.40
63039;DHT22;49125;48.812;9.206;2022-08-04T02:35:06;20.50;90.10
63039;DHT22;49125;48.812;9.206;2022-08-04T02:37:32;20.50;90.40
63039;DHT22;49125;48.812;9.206;2022-08-04T02:40:02;20.40;90.40
63039;DHT22;49125;48.812;9.206;2022-08-04T02:42:29;20.40;90.40
63039;DHT22;49125;48.812;9.206;2022-08-04T02:44:57;20.40;90.40
63039;DHT22;49125;48.812;9.206;2022-08-04T02:47:25;20.40;90.40
63039;DHT22;49125;48.812;9.206;2022-08-04T02:49:52;20.40;90.50
63039;DHT22;49125;48.812;9.206;2022-08-04T02:52:19;20.40;90.40
63039;DHT22;49125;48.812;9.206;2022-08-04T02:54:48;20.30;90.50
63039;DHT22;49125;48.812;9.206;2022-08-04T02:57:16;20.30;90.60
63039;DHT22;49125;48.812;9.206;2022-08-04T03:05:30;20.20;91.00
63039;DHT22;49125;48.812;9.206;2022-08-04T03:27:48;19.90;91.80
63039;DHT22;49125;48.812;9.206;2022-08-04T03:30:19;19.90;92.00
63039;DHT22;49125;48.812;9.206;2022-08-04T03:33:23;19.80;92.00
63039;DHT22;49125;48.812;9.206;2022-08-04T03:36:05;19.80;91.80
63039;DHT22;49125;48.812;9.206;2022-08-04T03:42:04;19.90;91.70
63039;DHT22;49125;48.812;9.206;2022-08-04T03:45:02;20.00;91.70
63039;DHT22;49125;48.812;9.206;2022-08-04T04:01:29;19.90;92.00
63039;DHT22;49125;48.812;9.206;2022-08-04T04:15:55;20.00;91.80
63039;DHT22;49125;48.812;9.206;2022-08-04T04:24:30;20.00;92.00
63039;DHT22;49125;48.812;9.206;2022-08-04T04:32:34;20.00;92.10
63039;DHT22;49125;48.812;9.206;2022-08-04T04:46:10;20.30;92.00
63039;DHT22;49125;48.812;9.206;2022-08-04T04:51:47;20.50;91.40
63039;DHT22;49125;48.812;9.206;2022-08-04T04:57:16;20.70;91.10
63039;DHT22;49125;48.812;9.206;2022-08-04T05:02:31;20.90;90.90
63039;DHT22;49125;48.812;9.206;2022-08-04T05:08:17;21.10;90.70
63039;DHT22;49125;48.812;9.206;2022-08-04T05:16:14;21.40;90.30
63039;DHT22;49125;48.812;9.206;2022-08-04T05:18:42;21.40;90.00
63039;DHT22;49125;48.812;9.206;2022-08-04T05:21:18;21.50;89.60
63039;DHT22;49125;48.812;9.206;2022-08-04T05:23:48;21.70;89.50
63039;DHT22;49125;48.812;9.206;2022-08-04T05:26:18;21.80;89.00
63039;DHT22;49125;48.812;9.206;2022-08-04T05:28:56;21.90;88.40
63039;DHT22;49125;48.812;9.206;2022-08-04T05:31:26;22.00;87.90
63039;DHT22;49125;48.812;9.206;2022-08-04T05:33:59;22.10;87.30
63039;DHT22;49125;48.812;9.206;2022-08-04T05:36:35;22.20;86.90
63039;DHT22;49125;48.812;9.206;2022-08-04T05:39:02;22.40;86.50
63039;DHT22;49125;48.812;9.206;2022-08-04T05:41:29;22.50;86.60
63039;DHT22;49125;48.812;9.206;2022-08-04T05:43:57;22.60;86.00
63039;DHT22;49125;48.812;9.206;2022-08-04T05:46:24;22.70;85.80
63039;DHT22;49125;48.812;9.206;2022-08-04T05:48:51;22.70;85.00
63039;DHT22;49125;48.812;9.206;2022-08-04T05:51:17;22.80;83.90
63039;DHT22;49125;48.812;9.206;2022-08-04T05:53:43;22.80;84.20
63039;DHT22;49125;48.812;9.206;2022-08-04T05:56:13;23.00;84.20
63039;DHT22;49125;48.812;9.206;2022-08-04T05:58:39;23.10;84.20
63039;DHT22;49125;48.812;9.206;2022-08-04T06:01:08;23.30;83.80
63039;DHT22;49125;48.812;9.206;2022-08-04T06:03:35;23.40;83.40
63039;DHT22;49125;48.812;9.206;2022-08-04T06:06:02;23.60;83.10
63039;DHT22;49125;48.812;9.206;2022-08-04T06:08:29;23.80;82.80
63039;DHT22;49125;48.812;9.206;2022-08-04T06:10:57;24.10;82.60
63039;DHT22;49125;48.812;9.206;2022-08-04T06:13:32;24.30;82.10
63039;DHT22;49125;48.812;9.206;2022-08-04T06:16:00;24.60;81.70
63039;DHT22;49125;48.812;9.206;2022-08-04T06:18:31;24.80;80.30
63039;DHT22;49125;48.812;9.206;2022-08-04T06:20:59;25.00;79.80
63039;DHT22;49125;48.812;9.206;2022-08-04T06:23:31;25.10;78.60
63039;DHT22;49125;48.812;9.206;2022-08-04T06:25:58;25.20;78.60
63039;DHT22;49125;48.812;9.206;2022-08-04T06:28:27;25.40;78.50
63039;DHT22;49125;48.812;9.206;2022-08-04T06:30:53;25.50;77.70
63039;DHT22;49125;48.812;9.206;2022-08-04T06:33:20;25.70;77.50
63039;DHT22;49125;48.812;9.206;2022-08-04T06:35:59;25.90;76.00
63039;DHT22;49125;48.812;9.206;2022-08-04T06:38:27;26.00;75.30
63039;DHT22;49125;48.812;9.206;2022-08-04T06:40:55;26.20;75.30
63039;DHT22;49125;48.812;9.206;2022-08-04T06:43:25;26.30;74.20
63039;DHT22;49125;48.812;9.206;2022-08-04T06:45:51;26.60;73.90
63039;DHT22;49125;48.812;9.206;2022-08-04T06:48:18;26.70;72.00
63039;DHT22;49125;48.812;9.206;2022-08-04T06:50:47;26.60;73.10
63039;DHT22;49125;48.812;9.206;2022-08-04T06:53:14;26.80;73.30
63039;DHT22;49125;48.812;9.206;2022-08-04T06:55:42;27.00;71.80
63039;DHT22;49125;48.812;9.206;2022-08-04T06:58:10;27.20;71.40
63039;DHT22;49125;48.812;9.206;2022-08-04T07:00:38;27.50;71.80
63039;DHT22;49125;48.812;9.206;2022-08-04T07:03:05;27.70;70.80
63039;DHT22;49125;48.812;9.206;2022-08-04T07:05:34;27.80;70.20
63039;DHT22;49125;48.812;9.206;2022-08-04T07:08:00;28.10;69.10
63039;DHT22;49125;48.812;9.206;2022-08-04T07:10:27;28.30;69.00
63039;DHT22;49125;48.812;9.206;2022-08-04T07:12:53;28.60;68.50
63039;DHT22;49125;48.812;9.206;2022-08-04T07:15:19;28.80;66.40
63039;DHT22;49125;48.812;9.206;2022-08-04T07:17:46;29.00;65.30
63039;DHT22;49125;48.812;9.206;2022-08-04T07:20:12;29.20;66.80
63039;DHT22;49125;48.812;9.206;2022-08-04T07:22:37;29.20;65.00
63039;DHT22;49125;48.812;9.206;2022-08-04T07:25:08;29.20;64.30
63039;DHT22;49125;48.812;9.206;2022-08-04T07:27:34;29.30;65.20
63039;DHT22;49125;48.812;9.206;2022-08-04T07:30:02;29.50;64.10
63039;DHT22;49125;48.812;9.206;2022-08-04T07:32:30;29.70;62.40
63039;DHT22;49125;48.812;9.206;2022-08-04T07:34:56;29.80;63.10
63039;DHT22;49125;48.812;9.206;2022-08-04T07:37:22;30.00;62.50
63039;DHT22;49125;48.812;9.206;2022-08-04T07:39:47;30.20;62.60
63039;DHT22;49125;48.812;9.206;2022-08-04T07:42:13;30.40;61.70
63039;DHT22;49125;48.812;9.206;2022-08-04T07:44:45;30.50;62.00
63039;DHT22;49125;48.812;9.206;2022-08-04T07:47:11;30.60;60.60
63039;DHT22;49125;48.812;9.206;2022-08-04T07:49:37;30.70;60.80
63039;DHT22;49125;48.812;9.206;2022-08-04T07:52:03;30.90;59.90
63039;DHT22;49125;48.812;9.206;2022-08-04T07:54:32;31.10;59.60
63039;DHT22;49125;48.812;9.206;2022-08-04T07:56:57;31.20;58.40
63039;DHT22;49125;48.812;9.206;2022-08-04T07:59:23;31.20;58.90
63039;DHT22;49125;48.812;9.206;2022-08-04T08:01:49;31.50;58.70
63039;DHT22;49125;48.812;9.206;2022-08-04T08:04:18;31.80;57.80
63039;DHT22;49125;48.812;9.206;2022-08-04T08:06:43;32.10;56.40
63039;DHT22;49125;48.812;9.206;2022-08-04T08:09:11;32.10;55.90
63039;DHT22;49125;48.812;9.206;2022-08-04T08:11:38;32.30;56.20
63039;DHT22;49125;48.812;9.206;2022-08-04T08:14:04;32.40;55.00
63039;DHT22;49125;48.812;9.206;2022-08-04T08:16:30;32.50;55.00
63039;DHT22;49125;48.812;9.206;2022-08-04T08:18:59;32.70;54.50
63039;DHT22;49125;48.812;9.206;2022-08-04T08:21:25;32.90;53.00
63039;DHT22;49125;48.812;9.206;2022-08-04T08:23:50;33.10;53.60
63039;DHT22;49125;48.812;9.206;2022-08-04T08:26:16;33.30;51.80
63039;DHT22;49125;48.812;9.206;2022-08-04T08:28:43;33.40;51.80
63039;DHT22;49125;48.812;9.206;2022-08-04T08:31:08;33.40;51.60
63039;DHT22;49125;48.812;9.206;2022-08-04T08:33:34;33.40;50.40
63039;DHT22;49125;48.812;9.206;2022-08-04T09:02:02;34.60;47.20
63039;DHT22;49125;48.812;9.206;2022-08-04T09:10:32;34.90;45.00
63039;DHT22;49125;48.812;9.206;2022-08-04T09:13:14;35.30;45.60
63039;DHT22;49125;48.812;9.206;2022-08-04T09:21:40;35.80;43.20
63039;DHT22;49125;48.812;9.206;2022-08-04T09:24:24;36.00;43.20
63039;DHT22;49125;48.812;9.206;2022-08-04T09:27:19;36.10;43.30
63039;DHT22;49125;48.812;9.206;2022-08-04T09:30:06;36.40;43.10
63039;DHT22;49125;48.812;9.206;2022-08-04T09:35:31;36.80;43.20
63039;DHT22;49125;48.812;9.206;2022-08-04T09:38:19;37.00;42.40
63039;DHT22;49125;48.812;9.206;2022-08-04T09:43:30;37.40;41.00
63039;DHT22;49125;48.812;9.206;2022-08-04T09:46:04;37.50;42.10
63039;DHT22;49125;48.812;9.206;2022-08-04T10:00:05;38.20;38.50
63039;DHT22;49125;48.812;9.206;2022-08-04T10:02:52;37.90;39.30
63039;DHT22;49125;48.812;9.206;2022-08-04T10:05:25;37.90;38.70
63039;DHT22;49125;48.812;9.206;2022-08-04T10:21:34;38.70;37.10
63039;DHT22;49125;48.812;9.206;2022-08-04T10:27:16;38.80;35.60
63039;DHT22;49125;48.812;9.206;2022-08-04T10:29:46;38.90;36.80
63039;DHT22;49125;48.812;9.206;2022-08-04T10:32:31;39.10;35.60
63039;DHT22;49125;48.812;9.206;2022-08-04T10:35:12;39.30;35.90
63039;DHT22;49125;48.812;9.206;2022-08-04T10:40:39;39.60;34.90
63039;DHT22;49125;48.812;9.206;2022-08-04T10:45:57;40.30;35.90
63039;DHT22;49125;48.812;9.206;2022-08-04T10:51:27;40.90;34.40
63039;DHT22;49125;48.812;9.206;2022-08-04T10:53:54;41.10;33.20
63039;DHT22;49125;48.812;9.206;2022-08-04T10:56:28;41.10;31.60
63039;DHT22;49125;48.812;9.206;2022-08-04T10:59:01;41.10;33.00
63039;DHT22;49125;48.812;9.206;2022-08-04T11:01:34;41.30;30.10
63039;DHT22;49125;48.812;9.206;2022-08-04T11:04:07;41.50;31.00
63039;DHT22;49125;48.812;9.206;2022-08-04T11:06:35;41.60;30.00
63039;DHT22;49125;48.812;9.206;2022-08-04T11:09:02;41.60;30.10
63039;DHT22;49125;48.812;9.206;2022-08-04T11:11:36;41.70;31.30
63039;DHT22;49125;48.812;9.206;2022-08-04T11:14:13;41.90;29.90
63039;DHT22;49125;48.812;9.206;2022-08-04T11:22:43;43.00;31.90
63039;DHT22;49125;48.812;9.206;2022-08-04T11:25:24;43.50;31.90
63039;DHT22;49125;48.812;9.206;2022-08-04T11:38:55;44.10;28.90
63039;DHT22;49125;48.812;9.206;2022-08-04T11:41:45;43.90;29.00
63039;DHT22;49125;48.812;9.206;2022-08-04T11:44:19;43.50;29.20
63039;DHT22;49125;48.812;9.206;2022-08-04T11:46:50;43.40;28.70
63039;DHT22;49125;48.812;9.206;2022-08-04T11:49:30;43.20;29.90
63039;DHT22;49125;48.812;9.206;2022-08-04T11:51:59;43.70;29.00
63039;DHT22;49125;48.812;9.206;2022-08-04T11:54:25;44.10;29.10
63039;DHT22;49125;48.812;9.206;2022-08-04T11:56:52;44.50;28.80
63039;DHT22;49125;48.812;9.206;2022-08-04T11:59:19;44.80;29.20
63039;DHT22;49125;48.812;9.206;2022-08-04T12:01:49;45.30;28.40
63039;DHT22;49125;48.812;9.206;2022-08-04T12:04:49;45.80;29.20
63039;DHT22;49125;48.812;9.206;2022-08-04T12:09:57;44.00;28.10
63039;DHT22;49125;48.812;9.206;2022-08-04T12:12:45;43.30;29.10
63039;DHT22;49125;48.812;9.206;2022-08-04T12:15:30;43.60;29.20
63039;DHT22;49125;48.812;9.206;2022-08-04T12:18:23;43.70;29.10
63039;DHT22;49125;48.812;9.206;2022-08-04T12:20:59;43.70;28.40
63039;DHT22;49125;48.812;9.206;2022-08-04T12:23:37;43.50;28.20
63039;DHT22;49125;48.812;9.206;2022-08-04T12:26:16;43.90;28.80
63039;DHT22;49125;48.812;9.206;2022-08-04T12:28:47;43.80;27.50
63039;DHT22;49125;48.812;9.206;2022-08-04T12:31:24;44.60;29.10
63039;DHT22;49125;48.812;9.206;2022-08-04T12:34:06;44.80;27.60
63039;DHT22;49125;48.812;9.206;2022-08-04T12:39:09;45.90;28.30
63039;DHT22;49125;48.812;9.206;2022-08-04T12:41:42;47.10;28.30
63039;DHT22;49125;48.812;9.206;2022-08-04T12:44:12;47.30;27.40
63039;DHT22;49125;48.812;9.206;2022-08-04T12:46:39;47.90;27.80
63039;DHT22;49125;48.812;9.206;2022-08-04T12:49:10;48.40;27.00
63039;DHT22;49125;48.812;9.206;2022-08-04T12:51:39;48.40;26.60
63039;DHT22;49125;48.812;9.206;2022-08-04T12:54:06;48.60;26.30
63039;DHT22;49125;48.812;9.206;2022-08-04T12:56:32;48.70;26.20
63039;DHT22;49125;48.812;9.206;2022-08-04T12:59:05;48.50;26.00
63039;DHT22;49125;48.812;9.206;2022-08-04T13:01:31;48.40;27.20
63039;DHT22;49125;48.812;9.206;2022-08-04T13:03:58;48.90;26.80
63039;DHT22;49125;48.812;9.206;2022-08-04T13:06:34;49.30;26.10
63039;DHT22;49125;48.812;9.206;2022-08-04T13:09:27;49.70;25.40
63039;DHT22;49125;48.812;9.206;2022-08-04T13:11:56;49.40;26.80
63039;DHT22;49125;48.812;9.206;2022-08-04T13:14:23;49.60;25.70
63039;DHT22;49125;48.812;9.206;2022-08-04T13:16:57;49.20;25.70
63039;DHT22;49125;48.812;9.206;2022-08-04T13:19:24;49.60;26.60
63039;DHT22;49125;48.812;9.206;2022-08-04T13:21:50;50.30;26.30
63039;DHT22;49125;48.812;9.206;2022-08-04T13:24:19;50.80;25.70
63039;DHT22;49125;48.812;9.206;2022-08-04T13:26:52;51.20;26.30
63039;DHT22;49125;48.812;9.206;2022-08-04T13:29:21;51.00;24.90
63039;DHT22;49125;48.812;9.206;2022-08-04T13:31:47;50.60;24.70
63039;DHT22;49125;48.812;9.206;2022-08-04T13:34:14;50.30;25.50
63039;DHT22;49125;48.812;9.206;2022-08-04T13:36:41;50.40;25.60
63039;DHT22;49125;48.812;9.206;2022-08-04T13:39:14;50.00;25.00
63039;DHT22;49125;48.812;9.206;2022-08-04T13:41:45;50.10;24.80
63039;DHT22;49125;48.812;9.206;2022-08-04T13:44:13;50.10;25.20
63039;DHT22;49125;48.812;9.206;2022-08-04T13:46:45;50.40;25.50
63039;DHT22;49125;48.812;9.206;2022-08-04T13:49:14;50.70;25.00
63039;DHT22;49125;48.812;9.206;2022-08-04T13:51:47;51.20;24.80
63039;DHT22;49125;48.812;9.206;2022-08-04T13:54:13;51.40;24.90
63039;DHT22;49125;48.812;9.206;2022-08-04T13:56:45;51.50;24.80
63039;DHT22;49125;48.812;9.206;2022-08-04T13:59:13;51.80;25.20
63039;DHT22;49125;48.812;9.206;2022-08-04T14:01:43;51.90;25.10
63039;DHT22;49125;48.812;9.206;2022-08-04T14:04:21;52.20;24.20
63039;DHT22;49125;48.812;9.206;2022-08-04T14:09:26;52.10;24.40
63039;DHT22;49125;48.812;9.206;2022-08-04T14:11:54;51.80;24.30
63039;DHT22;49125;48.812;9.206;2022-08-04T14:14:33;51.40;24.10
63039;DHT22;49125;48.812;9.206;2022-08-04T14:17:14;51.20;23.70
63039;DHT22;49125;48.812;9.206;2022-08-04T14:19:56;50.80;24.60
63039;DHT22;49125;48.812;9.206;2022-08-04T14:24:56;51.30;24.10
63039;DHT22;49125;48.812;9.206;2022-08-04T14:27:23;51.20;24.00
63039;DHT22;49125;48.812;9.206;2022-08-04T14:29:48;51.20;24.30
63039;DHT22;49125;48.812;9.206;2022-08-04T14:32:14;50.80;24.70
63039;DHT22;49125;48.812;9.206;2022-08-04T14:34:43;50.10;24.30
63039;DHT22;49125;48.812;9.206;2022-08-04T14:37:11;49.60;24.60
63039;DHT22;49125;48.812;9.206;2022-08-04T14:39:41;49.10;25.00
63039;DHT22;49125;48.812;9.206;2022-08-04T14:42:07;48.70;25.00
63039;DHT22;49125;48.812;9.206;2022-08-04T14:47:18;48.10;25.50
63039;DHT22;49125;48.812;9.206;2022-08-04T14:49:53;47.70;25.20
63039;DHT22;49125;48.812;9.206;2022-08-04T14:52:24;47.80;25.80
63039;DHT22;49125;48.812;9.206;2022-08-04T14:54:49;48.00;25.70
63039;DHT22;49125;48.812;9.206;2022-08-04T14:57:15;47.80;24.90
63039;DHT22;49125;48.812;9.206;2022-08-04T14:59:46;47.90;24.80
63039;DHT22;49125;48.812;9.206;2022-08-04T15:02:12;47.70;25.50
63039;DHT22;49125;48.812;9.206;2022-08-04T15:04:39;47.60;25.40
63039;DHT22;49125;48.812;9.206;2022-08-04T15:07:07;47.60;25.20
63039;DHT22;49125;48.812;9.206;2022-08-04T15:09:33;47.70;25.50
63039;DHT22;49125;48.812;9.206;2022-08-04T15:11:58;47.50;25.70
63039;DHT22;49125;48.812;9.206;2022-08-04T15:14:25;47.80;25.00
63039;DHT22;49125;48.812;9.206;2022-08-04T15:16:51;48.00;24.90
63039;DHT22;49125;48.812;9.206;2022-08-04T15:19:17;48.00;24.80
63039;DHT22;49125;48.812;9.206;2022-08-04T15:21:44;47.80;24.80
63039;DHT22;49125;48.812;9.206;2022-08-04T15:24:09;47.70;25.00
63039;DHT22;49125;48.812;9.206;2022-08-04T15:26:40;48.00;25.30
63039;DHT22;49125;48.812;9.206;2022-08-04T15:29:15;48.40;24.60
63039;DHT22;49125;48.812;9.206;2022-08-04T15:31:42;48.60;25.00
63039;DHT22;49125;48.812;9.206;2022-08-04T15:34:09;49.00;24.90
63039;DHT22;49125;48.812;9.206;2022-08-04T15:36:56;49.00;23.80
63039;DHT22;49125;48.812;9.206;2022-08-04T15:45:02;48.10;24.50
63039;DHT22;49125;48.812;9.206;2022-08-04T15:47:32;48.00;24.60
63039;DHT22;49125;48.812;9.206;2022-08-04T15:50:10;47.80;24.90
63039;DHT22;49125;48.812;9.206;2022-08-04T15:55:37;47.60;24.60
63039;DHT22;49125;48.812;9.206;2022-08-04T15:58:12;47.40;25.10
63039;DHT22;49125;48.812;9.206;2022-08-04T16:06:00;46.60;25.50
63039;DHT22;49125;48.812;9.206;2022-08-04T16:08:26;46.20;25.10
63039;DHT22;49125;48.812;9.206;2022-08-04T16:10:52;45.30;25.30
63039;DHT22;49125;48.812;9.206;2022-08-04T16:13:20;44.60;25.60
63039;DHT22;49125;48.812;9.206;2022-08-04T16:15:54;43.90;26.10
63039;DHT22;49125;48.812;9.206;2022-08-04T16:20:58;42.10;26.20
63039;DHT22;49125;48.812;9.206;2022-08-04T16:32:06;39.50;27.30
63039;DHT22;49125;48.812;9.206;2022-08-04T16:37:03;38.70;27.90
63039;DHT22;49125;48.812;9.206;2022-08-04T16:39:29;38.20;28.20
63039;DHT22;49125;48.812;9.206;2022-08-04T16:41:55;37.90;29.20
63039;DHT22;49125;48.812;9.206;2022-08-04T16:44:35;37.60;29.00
63039;DHT22;49125;48.812;9.206;2022-08-04T16:47:04;37.30;30.30
63039;DHT22;49125;48.812;9.206;2022-08-04T16:49:30;37.00;29.60
63039;DHT22;49125;48.812;9.206;2022-08-04T16:52:04;36.80;29.90
63039;DHT22;49125;48.812;9.206;2022-08-04T16:54:31;36.60;29.90
63039;DHT22;49125;48.812;9.206;2022-08-04T16:56:58;36.40;30.10
63039;DHT22;49125;48.812;9.206;2022-08-04T16:59:25;36.30;30.80
63039;DHT22;49125;48.812;9.206;2022-08-04T17:01:52;36.10;30.20
63039;DHT22;49125;48.812;9.206;2022-08-04T17:04:27;36.00;31.00
63039;DHT22;49125;48.812;9.206;2022-08-04T17:07:01;35.90;31.10
63039;DHT22;49125;48.812;9.206;2022-08-04T17:09:27;35.70;31.50
63039;DHT22;49125;48.812;9.206;2022-08-04T17:11:53;35.50;31.10
63039;DHT22;49125;48.812;9.206;2022-08-04T17:14:27;35.40;30.80
63039;DHT22;49125;48.812;9.206;2022-08-04T17:16:56;35.40;30.30
63039;DHT22;49125;48.812;9.206;2022-08-04T17:19:22;35.30;30.90
63039;DHT22;49125;48.812;9.206;2022-08-04T17:21:49;35.20;31.00
63039;DHT22;49125;48.812;9.206;2022-08-04T17:24:15;35.20;31.10
63039;DHT22;49125;48.812;9.206;2022-08-04T17:26:41;35.10;30.90
63039;DHT22;49125;48.812;9.206;2022-08-04T17:29:07;35.00;33.10
63039;DHT22;49125;48.812;9.206;2022-08-04T17:31:36;34.90;32.10
63039;DHT22;49125;48.812;9.206;2022-08-04T17:34:11;34.70;32.80
63039;DHT22;49125;48.812;9.206;2022-08-04T17:36:37;34.60;33.10
63039;DHT22;49125;48.812;9.206;2022-08-04T17:39:14;34.40;33.10
63039;DHT22;49125;48.812;9.206;2022-08-04T17:41:42;34.30;33.60
63039;DHT22;49125;48.812;9.206;2022-08-04T17:44:07;34.20;33.20
63039;DHT22;49125;48.812;9.206;2022-08-04T17:49:10;34.00;33.30
63039;DHT22;49125;48.812;9.206;2022-08-04T17:51:45;33.90;33.60
63039;DHT22;49125;48.812;9.206;2022-08-04T17:54:13;33.70;33.30
63039;DHT22;49125;48.812;9.206;2022-08-04T17:59:15;33.50;34.20
63039;DHT22;49125;48.812;9.206;2022-08-04T18:07:23;33.10;34.60
63039;DHT22;49125;48.812;9.206;2022-08-04T18:09:58;33.00;34.40
63039;DHT22;49125;48.812;9.206;2022-08-04T18:12:33;32.80;34.50
63039;DHT22;49125;48.812;9.206;2022-08-04T18:15:03;32.70;34.80
63039;DHT22;49125;48.812;9.206;2022-08-04T18:17:38;32.70;35.00
63039;DHT22;49125;48.812;9.206;2022-08-04T18:20:06;32.50;35.10
63039;DHT22;49125;48.812;9.206;2022-08-04T18:22:33;32.40;35.70
63039;DHT22;49125;48.812;9.206;2022-08-04T18:24:58;32.30;36.50
63039;DHT22;49125;48.812;9.206;2022-08-04T18:27:26;32.20;36.90
63039;DHT22;49125;48.812;9.206;2022-08-04T18:29:53;32.00;37.60
63039;DHT22;49125;48.812;9.206;2022-08-04T18:32:19;31.90;37.10
63039;DHT22;49125;48.812;9.206;2022-08-04T18:34:45;31.90;37.30
63039;DHT22;49125;48.812;9.206;2022-08-04T18:37:11;31.70;37.20
63039;DHT22;49125;48.812;9.206;2022-08-04T18:39:37;31.60;38.10
63039;DHT22;49125;48.812;9.206;2022-08-04T18:42:02;31.40;38.40
63039;DHT22;49125;48.812;9.206;2022-08-04T18:44:29;31.30;39.10
63039;DHT22;49125;48.812;9.206;2022-08-04T18:46:55;31.20;39.40
63039;DHT22;49125;48.812;9.206;2022-08-04T18:49:21;31.00;39.20
63039;DHT22;49125;48.812;9.206;2022-08-04T18:51:50;31.00;39.50
63039;DHT22;49125;48.812;9.206;2022-08-04T18:54:15;30.80;39.80
63039;DHT22;49125;48.812;9.206;2022-08-04T18:56:41;30.70;40.00
63039;DHT22;49125;48.812;9.206;2022-08-04T18:59:06;30.60;39.80
63039;DHT22;49125;48.812;9.206;2022-08-04T19:01:32;30.40;40.10
63039;DHT22;49125;48.812;9.206;2022-08-04T19:03:57;30.30;40.20
63039;DHT22;49125;48.812;9.206;2022-08-04T19:06:24;30.20;40.30
63039;DHT22;49125;48.812;9.206;2022-08-04T19:08:49;30.10;40.50
63039;DHT22;49125;48.812;9.206;2022-08-04T19:11:15;30.00;40.80
63039;DHT22;49125;48.812;9.206;2022-08-04T19:13:41;29.90;40.60
63039;DHT22;49125;48.812;9.206;2022-08-04T19:16:06;29.80;40.80
63039;DHT22;49125;48.812;9.206;2022-08-04T19:18:33;29.60;40.70
63039;DHT22;49125;48.812;9.206;2022-08-04T19:20:58;29.50;41.50
63039;DHT22;49125;48.812;9.206;2022-08-04T19:23:24;29.40;42.60
63039;DHT22;49125;48.812;9.206;2022-08-04T19:25:50;29.20;42.30
63039;DHT22;49125;48.812;9.206;2022-08-04T19:28:16;29.10;42.10
63039;DHT22;49125;48.812;9.206;2022-08-04T19:30:42;29.00;42.10
63039;DHT22;49125;48.812;9.206;2022-08-04T19:33:09;28.80;41.80
63039;DHT22;49125;48.812;9.206;2022-08-04T19:35:34;28.70;42.10
63039;DHT22;49125;48.812;9.206;2022-08-04T19:38:02;28.60;42.20
63039;DHT22;49125;48.812;9.206;2022-08-04T19:40:28;28.60;42.50
63039;DHT22;49125;48.812;9.206;2022-08-04T19:42:53;28.50;42.80
63039;DHT22;49125;48.812;9.206;2022-08-04T19:45:19;28.50;43.40
63039;DHT22;49125;48.812;9.206;2022-08-04T19:47:45;28.40;43.50
63039;DHT22;49125;48.812;9.206;2022-08-04T19:50:11;28.30;42.90
63039;DHT22;49125;48.812;9.206;2022-08-04T19:52:36;28.30;43.00
63039;DHT22;49125;48.812;9.206;2022-08-04T19:55:04;28.20;43.40
63039;DHT22;49125;48.812;9.206;2022-08-04T19:57:29;28.10;43.70
63039;DHT22;49125;48.812;9.206;2022-08-04T19:59:55;28.00;43.90
63039;DHT22;49125;48.812;9.206;2022-08-04T20:02:20;27.90;44.40
63039;DHT22;49125;48.812;9.206;2022-08-04T20:04:46;27.90;44.40
63039;DHT22;49125;48.812;9.206;2022-08-04T20:07:12;27.90;44.60
63039;DHT22;49125;48.812;9.206;2022-08-04T20:09:37;27.80;45.00
63039;DHT22;49125;48.812;9.206;2022-08-04T20:12:03;27.80;45.10
63039;DHT22;49125;48.812;9.206;2022-08-04T20:14:29;27.70;45.40
63039;DHT22;49125;48.812;9.206;2022-08-04T20:16:54;27.60;45.40
63039;DHT22;49125;48.812;9.206;2022-08-04T20:19:20;27.50;45.50
63039;DHT22;49125;48.812;9.206;2022-08-04T20:21:45;27.50;45.90
63039;DHT22;49125;48.812;9.206;2022-08-04T20:24:11;27.50;46.00
63039;DHT22;49125;48.812;9.206;2022-08-04T20:26:37;27.40;46.20
63039;DHT22;49125;48.812;9.206;2022-08-04T20:29:02;27.40;46.20
63039;DHT22;49125;48.812;9.206;2022-08-04T20:31:28;27.40;46.30
63039;DHT22;49125;48.812;9.206;2022-08-04T20:33:53;27.40;46.80
63039;DHT22;49125;48.812;9.206;2022-08-04T20:36:19;27.30;47.10
63039;DHT22;49125;48.812;9.206;2022-08-04T20:38:44;27.30;47.20